Artesian, South Dakota
Current Conditions -  °F | °C
As of 2:53 PM on Wednesday 26 Nov 2014 (Local Time) from KMHE Reporting Station
Clear Clear  
Wind Chill: -17°   Ceiling: Unl
Heat Index: -9°   Visibility: 10mi
Dew Point: -13°   Wind: 15mph
Humidity: 71%   Direction: 350°N
Pressure: 30.37"   Gusts: NA
Location:  44.01°N, 97.92°W
Report Text: KMHE 262053Z AUTO 35013KT 10SM CLR M09/M13 A3037 RMK AO2 SLP304 60000 T10891133 51017
Loading
Personal Weather Stations






























Interactive Weather Map New forecast layout! Learn more

10-Day Weather Forecast

Advertisements
Track Severe Weather on mobile